Autumn — V7QA6 — position and weather

sailwx.info

Track history (hours):
 
Tides and Currents Weather Stations Pressure Air Temp Water Temp Dewpoint Dewpoint Depression Visibility Wind Speed Wind Dir Waves Ship Positions

Autumn

Last reported at 2014-Oct-22 16:12 UTC. Time now 2014-Oct-22 22:24 UTC.
Position N 52°41' E 003°60'.

Length 129 m; draft 6 m.

Type: Tanker. MMSI: 538003323.

Date/timePositionNaut miles runAvg speedWind from/ knotsBaromVisibWave heightAir tempDewpointWater temp
2014-Oct-22 16:12N 52°41' E 003°60'812.0
2014-Oct-22 15:33N 52°34' E 004°07'1111.5
2014-Oct-22 14:33N 52°30' E 004°24'8 7.9
2014-Oct-22 13:33N 52°28' E 004°36'2 1.8
2014-Oct-22 12:33N 52°28' E 004°39'1 1.3
2014-Oct-22 11:33N 52°27' E 004°41'3 3.2
2014-Oct-22 10:34N 52°25' E 004°45'0 0.0
2014-Oct-22 09:34N 52°25' E 004°45'0 0.0
2014-Oct-22 08:31N 52°25' E 004°45'0 0.0
2014-Oct-22 07:34N 52°25' E 004°45'0 0.0
2014-Oct-22 06:34N 52°25' E 004°45'0 0.0
2014-Oct-22 05:34N 52°25' E 004°45'0 0.0
2014-Oct-22 04:34N 52°25' E 004°45'0 0.0
2014-Oct-22 03:34N 52°25' E 004°45'0 0.0
2014-Oct-22 02:33N 52°25' E 004°45'0 0.0
2014-Oct-22 01:34N 52°25' E 004°45'0 0.0
2014-Oct-22 00:34N 52°25' E 004°45'0 0.0
2014-Oct-21 23:34N 52°25' E 004°45'0 0.0
2014-Oct-21 22:34N 52°25' E 004°45'0 0.0
2014-Oct-21 21:33N 52°25' E 004°45'0 0.0
2014-Oct-21 20:33N 52°25' E 004°45'0 0.0
2014-Oct-21 19:34N 52°25' E 004°45'0 0.0
2014-Oct-21 18:31N 52°25' E 004°45'0 0.0
2014-Oct-21 17:34N 52°25' E 004°45'0 0.0
2014-Oct-21 16:33N 52°25' E 004°45'0 0.0
2014-Oct-21 15:30N 52°25' E 004°45'0 0.0
2014-Oct-21 14:33N 52°25' E 004°45'0 0.0
2014-Oct-21 13:33N 52°25' E 004°45'0 0.0
2014-Oct-21 12:33N 52°25' E 004°45'0 0.0
2014-Oct-21 11:30N 52°25' E 004°45'0 0.0
2014-Oct-21 10:33N 52°25' E 004°45'0 0.0
2014-Oct-21 09:31N 52°25' E 004°45'0 0.0
2014-Oct-21 08:28N 52°25' E 004°45'0 0.0
2014-Oct-21 07:31N 52°25' E 004°45'0 0.0
2014-Oct-21 06:31N 52°25' E 004°45'0 0.0
2014-Oct-21 05:31N 52°25' E 004°45'0 0.0
2014-Oct-21 04:28N 52°25' E 004°45'0 0.0
2014-Oct-21 03:31N 52°25' E 004°45'0 0.0
2014-Oct-21 02:31N 52°25' E 004°45'0 0.0
2014-Oct-21 01:31N 52°25' E 004°45'0 0.0
2014-Oct-21 00:31N 52°25' E 004°45'0 0.0
2014-Oct-20 23:31N 52°25' E 004°45'0 0.0
2014-Oct-20 22:31N 52°25' E 004°45'1 0.8
2014-Oct-20 21:34N 52°26' E 004°45'6 5.6
2014-Oct-20 20:34N 52°28' E 004°37'6 6.2
2014-Oct-20 19:34N 52°28' E 004°26'1111.3
2014-Oct-20 18:33N 52°28' E 004°08'1 0.6
2014-Oct-20 17:31N 52°27' E 004°08'0 0.0
2014-Oct-20 16:28N 52°28' E 004°08'0 0.0
2014-Oct-20 15:31N 52°28' E 004°08'0 0.0
2014-Oct-20 14:31N 52°28' E 004°08'0 0.0
2014-Oct-20 13:31N 52°28' E 004°08'0 0.0
2014-Oct-20 12:31N 52°28' E 004°08'0 0.0
2014-Oct-20 11:31N 52°28' E 004°08'0 0.1
2014-Oct-20 10:31N 52°28' E 004°08'0 0.0
2014-Oct-20 09:31N 52°27' E 004°08'0 0.1
2014-Oct-20 08:31N 52°27' E 004°08'0 0.0
2014-Oct-20 07:22N 52°27' E 004°08'0 0.0
2014-Oct-20 06:16N 52°27' E 004°08'0 0.0
2014-Oct-20 05:28N 52°27' E 004°08'0 0.0
2014-Oct-20 04:31N 52°27' E 004°08'0 0.0
2014-Oct-20 03:31N 52°28' E 004°08'0 0.0
2014-Oct-20 02:31N 52°28' E 004°08'0 0.0
2014-Oct-20 01:22N 52°28' E 004°08'0 0.0
2014-Oct-20 00:28N 52°28' E 004°08'0 0.0
2014-Oct-19 23:28N 52°28' E 004°08'0 0.0
2014-Oct-19 22:31N 52°27' E 004°08'0 0.0
2014-Oct-19 21:31N 52°27' E 004°08'0 0.0
2014-Oct-19 20:28N 52°27' E 004°08'0 0.0
2014-Oct-19 19:31N 52°27' E 004°08'0 0.0
2014-Oct-19 18:25N 52°27' E 004°08'0 0.0
2014-Oct-19 17:28N 52°27' E 004°08'0 0.0
2014-Oct-19 16:31N 52°27' E 004°08'0 0.0
2014-Oct-19 15:31N 52°27' E 004°08'0 0.0
2014-Oct-19 14:31N 52°27' E 004°08'0 0.0
2014-Oct-19 13:31N 52°27' E 004°08'0 0.0
2014-Oct-19 12:31N 52°27' E 004°08'0 0.0
2014-Oct-19 11:31N 52°27' E 004°08'0 0.0
2014-Oct-19 10:28N 52°27' E 004°08'0 0.0
2014-Oct-19 09:31N 52°27' E 004°08'0 0.0
2014-Oct-19 08:31N 52°28' E 004°08'0 0.0
2014-Oct-19 07:31N 52°28' E 004°07'0 0.0
2014-Oct-19 06:31N 52°28' E 004°07'0 0.0
2014-Oct-19 05:31N 52°28' E 004°07'0 0.0
2014-Oct-19 04:31N 52°28' E 004°08'0 0.0
2014-Oct-19 03:33N 52°28' E 004°08'0 0.1
2014-Oct-19 02:33N 52°28' E 004°08'8 8.3
2014-Oct-19 01:33N 52°36' E 004°05'1212.1
2014-Oct-19 00:32N 52°45' E 003°52'15212.3
2014-Oct-18 12:12N 54°29' E 000°46'813.0
2014-Oct-18 11:33N 54°35' E 000°35'1312.9
2014-Oct-18 10:33N 54°44' E 000°19'1212.3
2014-Oct-18 09:33N 54°52' E 000°03'1212.1
2014-Oct-18 08:32N 55°01' W 000°12'1212.2
2014-Oct-18 07:33N 55°09' W 000°27'6911.6
2014-Oct-18 01:33N 55°57' W 001°56'1211.9
2014-Oct-18 00:33N 56°03' W 002°15'1312.6
2014-Oct-17 23:33N 56°06' W 002°37'1312.8
2014-Oct-17 22:33N 56°04' W 002°60'1211.6
2014-Oct-17 21:33N 56°01' W 003°20'1110.6
2014-Oct-17 20:33N 56°02' W 003°38'2 1.7
2014-Oct-17 19:31N 56°02' W 003°42'0 0.0
2014-Oct-17 18:31N 56°02' W 003°42'0 0.0
2014-Oct-17 17:31N 56°02' W 003°42'0 0.0
2014-Oct-17 16:31N 56°02' W 003°42'0 0.0
2014-Oct-17 15:31N 56°02' W 003°42'0 0.0
2014-Oct-17 14:31N 56°02' W 003°42'0 0.0
2014-Oct-17 13:31N 56°02' W 003°42'0 0.0
2014-Oct-17 12:31N 56°02' W 003°42'0 0.0
2014-Oct-17 11:31N 56°02' W 003°42'0 0.0
2014-Oct-17 10:31N 56°02' W 003°42'0 0.0
2014-Oct-17 09:31N 56°02' W 003°42'0 0.0
2014-Oct-17 08:31N 56°02' W 003°42'0 0.0
2014-Oct-17 07:31N 56°02' W 003°42'0 0.0
2014-Oct-17 06:31N 56°02' W 003°42'0 0.0
2014-Oct-17 05:31N 56°02' W 003°42'0 0.0
2014-Oct-17 04:31N 56°02' W 003°42'0 0.0
2014-Oct-17 03:31N 56°02' W 003°42'0 0.0
2014-Oct-17 02:31N 56°02' W 003°42'0 0.0
2014-Oct-17 01:31N 56°02' W 003°42'0 0.0
2014-Oct-17 00:31N 56°02' W 003°42'0 0.0
2014-Oct-16 23:31N 56°02' W 003°42'0 0.0
2014-Oct-16 22:31N 56°02' W 003°42'0 0.0
2014-Oct-16 21:31N 56°02' W 003°42'0 0.0
2014-Oct-16 20:31N 56°02' W 003°42'0 0.0
2014-Oct-16 19:31N 56°02' W 003°42'0 0.0
2014-Oct-16 18:31N 56°02' W 003°42'0 0.0
2014-Oct-16 17:31N 56°02' W 003°42'0 0.0
2014-Oct-16 16:31N 56°02' W 003°42'0 0.0
2014-Oct-16 15:31N 56°02' W 003°42'0 0.0
2014-Oct-16 14:31N 56°02' W 003°42'0 0.0
2014-Oct-16 13:31N 56°02' W 003°42'0 0.0
2014-Oct-16 12:31N 56°02' W 003°42'0 0.0
2014-Oct-16 11:31N 56°02' W 003°42'0 0.0
2014-Oct-16 10:31N 56°02' W 003°42'0 0.0
2014-Oct-16 09:31N 56°02' W 003°42'0 0.0
2014-Oct-16 08:31N 56°02' W 003°42'0 0.0
2014-Oct-16 07:31N 56°02' W 003°42'0 0.3
2014-Oct-16 06:34N 56°02' W 003°41'5 5.1
2014-Oct-16 05:33N 56°02' W 003°32'10 9.6
2014-Oct-16 04:33N 56°02' W 003°15'5 4.2
2014-Oct-16 03:23N 56°05' W 003°07'0 0.0
2014-Oct-16 02:26N 56°05' W 003°07'0 0.0
2014-Oct-16 01:26N 56°05' W 003°07'0 0.0
2014-Oct-16 00:26N 56°05' W 003°07'0 0.0
2014-Oct-15 23:29N 56°05' W 003°07'0 0.0
2014-Oct-15 22:29N 56°05' W 003°07'0 0.0
2014-Oct-15 21:29N 56°05' W 003°07'0 0.2
2014-Oct-15 20:33N 56°05' W 003°07'9 9.0
2014-Oct-15 19:33N 56°06' W 002°51'1414.2
2014-Oct-15 18:33N 56°04' W 002°26'1414.0
2014-Oct-15 17:33N 55°60' W 002°02'1614.1
2014-Oct-15 16:25N 55°49' W 001°40'6114.6
2014-Oct-15 12:16N 54°59' W 000°42'912.3
2014-Oct-15 11:33N 54°51' W 000°36'1413.9
2014-Oct-15 10:33N 54°38' W 000°24'1313.4
2014-Oct-15 09:33N 54°27' W 000°13'1313.0
2014-Oct-15 08:33N 54°16' W 000°01'1312.9
2014-Oct-15 07:33N 54°06' E 000°13'1313.2
2014-Oct-15 06:33N 53°56' E 000°27'1413.7
2014-Oct-15 05:33N 53°45' E 000°42'4314.4
2014-Oct-15 02:33N 53°11' E 001°25'1313.1
2014-Oct-15 01:33N 53°01' E 001°41'1312.6
2014-Oct-15 00:33N 52°56' E 001°60'2311.6
2014-Oct-14 22:33N 52°35' E 002°17'5413.4
2014-Oct-14 18:31N 51°48' E 002°58'1212.5
2014-Oct-14 17:33N 51°43' E 003°16'1312.6
2014-Oct-14 16:34N 51°32' E 003°26'1010.0
2014-Oct-14 15:33N 51°26' E 003°39'1010.2
2014-Oct-14 14:33N 51°21' E 003°53'7 6.6
2014-Oct-14 13:34N 51°23' E 004°04'9 8.7
2014-Oct-14 12:33N 51°21' E 004°17'0 0.0
2014-Oct-14 11:33N 51°21' E 004°17'0 0.5
2014-Oct-14 10:34N 51°21' E 004°18'5 2.3
2014-Oct-14 08:31N 51°16' E 004°21'0 0.0
2014-Oct-14 07:19N 51°16' E 004°21'0 0.0
2014-Oct-14 06:25N 51°16' E 004°21'0 0.0
2014-Oct-14 05:31N 51°16' E 004°21'0 0.0
2014-Oct-14 04:25N 51°16' E 004°21'0 0.0
2014-Oct-14 03:19N 51°16' E 004°21'0 0.0
2014-Oct-14 02:25N 51°16' E 004°21'0 0.0
2014-Oct-14 01:31N 51°16' E 004°21'0 0.0
2014-Oct-14 00:13N 51°16' E 004°21'0 0.0
2014-Oct-13 23:13N 51°16' E 004°21'0 0.0
2014-Oct-13 22:25N 51°16' E 004°21'0 0.0
2014-Oct-13 21:07N 51°16' E 004°21'0 0.0
2014-Oct-13 20:25N 51°16' E 004°21'0 0.0
2014-Oct-13 17:31N 51°16' E 004°21'0 0.0
2014-Oct-13 16:22N 51°16' E 004°21'0 0.0
2014-Oct-13 14:22N 51°16' E 004°21'0 0.0
2014-Oct-13 13:31N 51°16' E 004°21'0 0.0
2014-Oct-13 12:31N 51°16' E 004°21'0 0.0
2014-Oct-13 11:31N 51°16' E 004°21'0 0.0
2014-Oct-13 10:28N 51°16' E 004°21'0 0.0
2014-Oct-13 09:31N 51°16' E 004°21'0 0.0
2014-Oct-13 08:31N 51°16' E 004°21'0 0.0
2014-Oct-13 07:31N 51°16' E 004°21'0 0.0
2014-Oct-13 06:31N 51°16' E 004°21'0 0.0
2014-Oct-13 05:31N 51°16' E 004°21'0 0.0
2014-Oct-13 04:25N 51°16' E 004°21'0 0.0
2014-Oct-13 03:31N 51°16' E 004°21'0 0.0
2014-Oct-13 02:28N 51°16' E 004°21'0 0.0
2014-Oct-13 01:25N 51°16' E 004°21'0 0.0
2014-Oct-13 00:28N 51°16' E 004°21'0 0.0
2014-Oct-12 23:31N 51°16' E 004°21'0 0.0
2014-Oct-12 22:31N 51°16' E 004°21'0 0.0
2014-Oct-12 21:19N 51°16' E 004°21'0 0.0
2014-Oct-12 20:31N 51°16' E 004°21'0 0.0
2014-Oct-12 19:07N 51°16' E 004°21'0 0.0
2014-Oct-12 18:31N 51°16' E 004°21'0 0.0
2014-Oct-12 17:28N 51°16' E 004°21'0 0.0
2014-Oct-12 16:28N 51°16' E 004°21'  
Track history (hours):
 
Tides and Currents Weather Stations Pressure Air Temp Water Temp Dewpoint Dewpoint Depression Visibility Wind Speed Wind Dir Waves Ship Positions

Autumn

Last reported at 2014-Oct-22 16:12 UTC. Time now 2014-Oct-22 22:24 UTC.
Position N 52°41' E 003°60'.

Length 129 m; draft 6 m.

Type: Tanker. MMSI: 538003323.

Date/timePositionNaut miles runAvg speedWind from/ knotsBaromVisibWave heightAir tempDewpointWater temp
2014-Oct-22 16:12N 52°41' E 003°60'812.0
2014-Oct-22 15:33N 52°34' E 004°07'1111.5
2014-Oct-22 14:33N 52°30' E 004°24'8 7.9
2014-Oct-22 13:33N 52°28' E 004°36'2 1.8
2014-Oct-22 12:33N 52°28' E 004°39'1 1.3
2014-Oct-22 11:33N 52°27' E 004°41'3 3.2
2014-Oct-22 10:34N 52°25' E 004°45'0 0.0
2014-Oct-22 09:34N 52°25' E 004°45'0 0.0
2014-Oct-22 08:31N 52°25' E 004°45'0 0.0
2014-Oct-22 07:34N 52°25' E 004°45'0 0.0
2014-Oct-22 06:34N 52°25' E 004°45'0 0.0
2014-Oct-22 05:34N 52°25' E 004°45'0 0.0
2014-Oct-22 04:34N 52°25' E 004°45'0 0.0
2014-Oct-22 03:34N 52°25' E 004°45'0 0.0
2014-Oct-22 02:33N 52°25' E 004°45'0 0.0
2014-Oct-22 01:34N 52°25' E 004°45'0 0.0
2014-Oct-22 00:34N 52°25' E 004°45'0 0.0
2014-Oct-21 23:34N 52°25' E 004°45'0 0.0
2014-Oct-21 22:34N 52°25' E 004°45'0 0.0
2014-Oct-21 21:33N 52°25' E 004°45'0 0.0
2014-Oct-21 20:33N 52°25' E 004°45'0 0.0
2014-Oct-21 19:34N 52°25' E 004°45'0 0.0
2014-Oct-21 18:31N 52°25' E 004°45'0 0.0
2014-Oct-21 17:34N 52°25' E 004°45'0 0.0
2014-Oct-21 16:33N 52°25' E 004°45'0 0.0
2014-Oct-21 15:30N 52°25' E 004°45'0 0.0
2014-Oct-21 14:33N 52°25' E 004°45'0 0.0
2014-Oct-21 13:33N 52°25' E 004°45'0 0.0
2014-Oct-21 12:33N 52°25' E 004°45'0 0.0
2014-Oct-21 11:30N 52°25' E 004°45'0 0.0
2014-Oct-21 10:33N 52°25' E 004°45'0 0.0
2014-Oct-21 09:31N 52°25' E 004°45'0 0.0
2014-Oct-21 08:28N 52°25' E 004°45'0 0.0
2014-Oct-21 07:31N 52°25' E 004°45'0 0.0
2014-Oct-21 06:31N 52°25' E 004°45'0 0.0
2014-Oct-21 05:31N 52°25' E 004°45'0 0.0
2014-Oct-21 04:28N 52°25' E 004°45'0 0.0
2014-Oct-21 03:31N 52°25' E 004°45'0 0.0
2014-Oct-21 02:31N 52°25' E 004°45'0 0.0
2014-Oct-21 01:31N 52°25' E 004°45'0 0.0
2014-Oct-21 00:31N 52°25' E 004°45'0 0.0
2014-Oct-20 23:31N 52°25' E 004°45'0 0.0
2014-Oct-20 22:31N 52°25' E 004°45'1 0.8
2014-Oct-20 21:34N 52°26' E 004°45'6 5.6
2014-Oct-20 20:34N 52°28' E 004°37'6 6.2
2014-Oct-20 19:34N 52°28' E 004°26'1111.3
2014-Oct-20 18:33N 52°28' E 004°08'1 0.6
2014-Oct-20 17:31N 52°27' E 004°08'0 0.0
2014-Oct-20 16:28N 52°28' E 004°08'0 0.0
2014-Oct-20 15:31N 52°28' E 004°08'0 0.0
2014-Oct-20 14:31N 52°28' E 004°08'0 0.0
2014-Oct-20 13:31N 52°28' E 004°08'0 0.0
2014-Oct-20 12:31N 52°28' E 004°08'0 0.0
2014-Oct-20 11:31N 52°28' E 004°08'0 0.1
2014-Oct-20 10:31N 52°28' E 004°08'0 0.0
2014-Oct-20 09:31N 52°27' E 004°08'0 0.1
2014-Oct-20 08:31N 52°27' E 004°08'0 0.0
2014-Oct-20 07:22N 52°27' E 004°08'0 0.0
2014-Oct-20 06:16N 52°27' E 004°08'0 0.0
2014-Oct-20 05:28N 52°27' E 004°08'0 0.0
2014-Oct-20 04:31N 52°27' E 004°08'0 0.0
2014-Oct-20 03:31N 52°28' E 004°08'0 0.0
2014-Oct-20 02:31N 52°28' E 004°08'0 0.0
2014-Oct-20 01:22N 52°28' E 004°08'0 0.0
2014-Oct-20 00:28N 52°28' E 004°08'0 0.0
2014-Oct-19 23:28N 52°28' E 004°08'0 0.0
2014-Oct-19 22:31N 52°27' E 004°08'0 0.0
2014-Oct-19 21:31N 52°27' E 004°08'0 0.0
2014-Oct-19 20:28N 52°27' E 004°08'0 0.0
2014-Oct-19 19:31N 52°27' E 004°08'0 0.0
2014-Oct-19 18:25N 52°27' E 004°08'0 0.0
2014-Oct-19 17:28N 52°27' E 004°08'0 0.0
2014-Oct-19 16:31N 52°27' E 004°08'0 0.0
2014-Oct-19 15:31N 52°27' E 004°08'0 0.0
2014-Oct-19 14:31N 52°27' E 004°08'0 0.0
2014-Oct-19 13:31N 52°27' E 004°08'0 0.0
2014-Oct-19 12:31N 52°27' E 004°08'0 0.0
2014-Oct-19 11:31N 52°27' E 004°08'0 0.0
2014-Oct-19 10:28N 52°27' E 004°08'0 0.0
2014-Oct-19 09:31N 52°27' E 004°08'0 0.0
2014-Oct-19 08:31N 52°28' E 004°08'0 0.0
2014-Oct-19 07:31N 52°28' E 004°07'0 0.0
2014-Oct-19 06:31N 52°28' E 004°07'0 0.0
2014-Oct-19 05:31N 52°28' E 004°07'0 0.0
2014-Oct-19 04:31N 52°28' E 004°08'0 0.0
2014-Oct-19 03:33N 52°28' E 004°08'0 0.1
2014-Oct-19 02:33N 52°28' E 004°08'8 8.3
2014-Oct-19 01:33N 52°36' E 004°05'1212.1
2014-Oct-19 00:32N 52°45' E 003°52'15212.3
2014-Oct-18 12:12N 54°29' E 000°46'813.0
2014-Oct-18 11:33N 54°35' E 000°35'1312.9
2014-Oct-18 10:33N 54°44' E 000°19'1212.3
2014-Oct-18 09:33N 54°52' E 000°03'1212.1
2014-Oct-18 08:32N 55°01' W 000°12'1212.2
2014-Oct-18 07:33N 55°09' W 000°27'6911.6
2014-Oct-18 01:33N 55°57' W 001°56'1211.9
2014-Oct-18 00:33N 56°03' W 002°15'1312.6
2014-Oct-17 23:33N 56°06' W 002°37'1312.8
2014-Oct-17 22:33N 56°04' W 002°60'1211.6
2014-Oct-17 21:33N 56°01' W 003°20'1110.6
2014-Oct-17 20:33N 56°02' W 003°38'2 1.7
2014-Oct-17 19:31N 56°02' W 003°42'0 0.0
2014-Oct-17 18:31N 56°02' W 003°42'0 0.0
2014-Oct-17 17:31N 56°02' W 003°42'0 0.0
2014-Oct-17 16:31N 56°02' W 003°42'0 0.0
2014-Oct-17 15:31N 56°02' W 003°42'0 0.0
2014-Oct-17 14:31N 56°02' W 003°42'0 0.0
2014-Oct-17 13:31N 56°02' W 003°42'0 0.0
2014-Oct-17 12:31N 56°02' W 003°42'0 0.0
2014-Oct-17 11:31N 56°02' W 003°42'0 0.0
2014-Oct-17 10:31N 56°02' W 003°42'0 0.0
2014-Oct-17 09:31N 56°02' W 003°42'0 0.0
2014-Oct-17 08:31N 56°02' W 003°42'0 0.0
2014-Oct-17 07:31N 56°02' W 003°42'0 0.0
2014-Oct-17 06:31N 56°02' W 003°42'0 0.0
2014-Oct-17 05:31N 56°02' W 003°42'0 0.0
2014-Oct-17 04:31N 56°02' W 003°42'0 0.0
2014-Oct-17 03:31N 56°02' W 003°42'0 0.0
2014-Oct-17 02:31N 56°02' W 003°42'0 0.0
2014-Oct-17 01:31N 56°02' W 003°42'0 0.0
2014-Oct-17 00:31N 56°02' W 003°42'0 0.0
2014-Oct-16 23:31N 56°02' W 003°42'0 0.0
2014-Oct-16 22:31N 56°02' W 003°42'0 0.0
2014-Oct-16 21:31N 56°02' W 003°42'0 0.0
2014-Oct-16 20:31N 56°02' W 003°42'0 0.0
2014-Oct-16 19:31N 56°02' W 003°42'0 0.0
2014-Oct-16 18:31N 56°02' W 003°42'0 0.0
2014-Oct-16 17:31N 56°02' W 003°42'0 0.0
2014-Oct-16 16:31N 56°02' W 003°42'0 0.0
2014-Oct-16 15:31N 56°02' W 003°42'0 0.0
2014-Oct-16 14:31N 56°02' W 003°42'0 0.0
2014-Oct-16 13:31N 56°02' W 003°42'0 0.0
2014-Oct-16 12:31N 56°02' W 003°42'0 0.0
2014-Oct-16 11:31N 56°02' W 003°42'0 0.0
2014-Oct-16 10:31N 56°02' W 003°42'0 0.0
2014-Oct-16 09:31N 56°02' W 003°42'0 0.0
2014-Oct-16 08:31N 56°02' W 003°42'0 0.0
2014-Oct-16 07:31N 56°02' W 003°42'0 0.3
2014-Oct-16 06:34N 56°02' W 003°41'5 5.1
2014-Oct-16 05:33N 56°02' W 003°32'10 9.6
2014-Oct-16 04:33N 56°02' W 003°15'5 4.2
2014-Oct-16 03:23N 56°05' W 003°07'0 0.0
2014-Oct-16 02:26N 56°05' W 003°07'0 0.0
2014-Oct-16 01:26N 56°05' W 003°07'0 0.0
2014-Oct-16 00:26N 56°05' W 003°07'0 0.0
2014-Oct-15 23:29N 56°05' W 003°07'0 0.0
2014-Oct-15 22:29N 56°05' W 003°07'0 0.0
2014-Oct-15 21:29N 56°05' W 003°07'0 0.2
2014-Oct-15 20:33N 56°05' W 003°07'9 9.0
2014-Oct-15 19:33N 56°06' W 002°51'1414.2
2014-Oct-15 18:33N 56°04' W 002°26'1414.0
2014-Oct-15 17:33N 55°60' W 002°02'1614.1
2014-Oct-15 16:25N 55°49' W 001°40'6114.6
2014-Oct-15 12:16N 54°59' W 000°42'912.3
2014-Oct-15 11:33N 54°51' W 000°36'1413.9
2014-Oct-15 10:33N 54°38' W 000°24'1313.4
2014-Oct-15 09:33N 54°27' W 000°13'1313.0
2014-Oct-15 08:33N 54°16' W 000°01'1312.9
2014-Oct-15 07:33N 54°06' E 000°13'1313.2
2014-Oct-15 06:33N 53°56' E 000°27'1413.7
2014-Oct-15 05:33N 53°45' E 000°42'4314.4
2014-Oct-15 02:33N 53°11' E 001°25'1313.1
2014-Oct-15 01:33N 53°01' E 001°41'1312.6
2014-Oct-15 00:33N 52°56' E 001°60'2311.6
2014-Oct-14 22:33N 52°35' E 002°17'5413.4
2014-Oct-14 18:31N 51°48' E 002°58'1212.5
2014-Oct-14 17:33N 51°43' E 003°16'1312.6
2014-Oct-14 16:34N 51°32' E 003°26'1010.0
2014-Oct-14 15:33N 51°26' E 003°39'1010.2
2014-Oct-14 14:33N 51°21' E 003°53'7 6.6
2014-Oct-14 13:34N 51°23' E 004°04'9 8.7
2014-Oct-14 12:33N 51°21' E 004°17'0 0.0
2014-Oct-14 11:33N 51°21' E 004°17'0 0.5
2014-Oct-14 10:34N 51°21' E 004°18'5 2.3
2014-Oct-14 08:31N 51°16' E 004°21'0 0.0
2014-Oct-14 07:19N 51°16' E 004°21'0 0.0
2014-Oct-14 06:25N 51°16' E 004°21'0 0.0
2014-Oct-14 05:31N 51°16' E 004°21'0 0.0
2014-Oct-14 04:25N 51°16' E 004°21'0 0.0
2014-Oct-14 03:19N 51°16' E 004°21'0 0.0
2014-Oct-14 02:25N 51°16' E 004°21'0 0.0
2014-Oct-14 01:31N 51°16' E 004°21'0 0.0
2014-Oct-14 00:13N 51°16' E 004°21'0 0.0
2014-Oct-13 23:13N 51°16' E 004°21'0 0.0
2014-Oct-13 22:25N 51°16' E 004°21'0 0.0
2014-Oct-13 21:07N 51°16' E 004°21'0 0.0
2014-Oct-13 20:25N 51°16' E 004°21'0 0.0
2014-Oct-13 17:31N 51°16' E 004°21'0 0.0
2014-Oct-13 16:22N 51°16' E 004°21'0 0.0
2014-Oct-13 14:22N 51°16' E 004°21'0 0.0
2014-Oct-13 13:31N 51°16' E 004°21'0 0.0
2014-Oct-13 12:31N 51°16' E 004°21'0 0.0
2014-Oct-13 11:31N 51°16' E 004°21'0 0.0
2014-Oct-13 10:28N 51°16' E 004°21'0 0.0
2014-Oct-13 09:31N 51°16' E 004°21'0 0.0
2014-Oct-13 08:31N 51°16' E 004°21'0 0.0
2014-Oct-13 07:31N 51°16' E 004°21'0 0.0
2014-Oct-13 06:31N 51°16' E 004°21'0 0.0
2014-Oct-13 05:31N 51°16' E 004°21'0 0.0
2014-Oct-13 04:25N 51°16' E 004°21'0 0.0
2014-Oct-13 03:31N 51°16' E 004°21'0 0.0
2014-Oct-13 02:28N 51°16' E 004°21'0 0.0
2014-Oct-13 01:25N 51°16' E 004°21'0 0.0
2014-Oct-13 00:28N 51°16' E 004°21'0 0.0
2014-Oct-12 23:31N 51°16' E 004°21'0 0.0
2014-Oct-12 22:31N 51°16' E 004°21'0 0.0
2014-Oct-12 21:19N 51°16' E 004°21'0 0.0
2014-Oct-12 20:31N 51°16' E 004°21'0 0.0
2014-Oct-12 19:07N 51°16' E 004°21'0 0.0
2014-Oct-12 18:31N 51°16' E 004°21'0 0.0
2014-Oct-12 17:28N 51°16' E 004°21'0 0.0
2014-Oct-12 16:28N 51°16' E 004°21'  

Dump ship's entire track history